RAF Spadeadam


Codes: EGOM/
Name: RAF Spadeadam
City: Spadeadam
Country: United Kingdom
Elevation: 1066 ft.
Website:
Wikipedia:

Photos at RAF Spadeadam


   Photos courtesy of SpottingLog. You can add your own sightings and photos by signing up for a free trial today.



No photos found.

Weather at RAF Spadeadam


Time (UTC)DescriptionTempratureWindCloud coverageVisibilityPressureHumidity
16-Jun-2024 03:00Broken Clouds6°C4 mph, SW83%10000m996hPa95%
16-Jun-2024 06:00Overcast Clouds7°C4 mph, SW85%10000m997hPa94%
16-Jun-2024 09:00Overcast Clouds10°C9 mph, SW100%10000m997hPa88%
16-Jun-2024 12:00Light Rain12°C16 mph, SW100%9470m997hPa88%
16-Jun-2024 15:00Moderate Rain10°C11 mph, SW100%5369m998hPa99%
16-Jun-2024 18:00Moderate Rain10°C9 mph, W100%8197m998hPa98%
16-Jun-2024 21:00Light Rain9°C7 mph, SW99%10000m1000hPa98%
17-Jun-2024 00:00Light Rain9°C7 mph, W100%9321m1002hPa99%
17-Jun-2024 03:00Light Rain9°C4 mph, NW100%10000m1004hPa94%
17-Jun-2024 06:00Light Rain10°C4 mph, NW88%10000m1006hPa90%
17-Jun-2024 09:00Light Rain13°C7 mph, NW41%10000m1007hPa76%
17-Jun-2024 12:00Light Rain14°C9 mph, W50%10000m1008hPa79%
17-Jun-2024 15:00Light Rain13°C9 mph, W80%8951m1010hPa85%
17-Jun-2024 18:00Light Rain14°C4 mph, W70%10000m1011hPa85%
17-Jun-2024 21:00Light Rain9°C2 mph, SW49%10000m1013hPa91%
18-Jun-2024 00:00Scattered Clouds8°C0 mph, N29%10000m1015hPa94%
18-Jun-2024 03:00Broken Clouds7°C2 mph, E54%10000m1016hPa95%
18-Jun-2024 06:00Broken Clouds10°C2 mph, SE62%10000m1016hPa93%
18-Jun-2024 09:00Light Rain13°C2 mph, W79%10000m1017hPa86%
18-Jun-2024 12:00Light Rain15°C7 mph, W79%9783m1018hPa80%
18-Jun-2024 15:00Light Rain14°C2 mph, N100%10000m1019hPa82%
18-Jun-2024 18:00Light Rain10°C9 mph, E100%10000m1020hPa94%
18-Jun-2024 21:00Overcast Clouds9°C4 mph, NE100%10000m1022hPa95%
19-Jun-2024 00:00Overcast Clouds8°C4 mph, E100%10000m1023hPa96%
19-Jun-2024 03:00Overcast Clouds6°C2 mph, SE99%10000m1023hPa96%
19-Jun-2024 06:00Overcast Clouds10°C4 mph, SW96%10000m1023hPa93%
19-Jun-2024 09:00Broken Clouds13°C9 mph, SW75%10000m1023hPa81%
19-Jun-2024 12:00Broken Clouds15°C13 mph, W74%10000m1023hPa68%
19-Jun-2024 15:00Broken Clouds14°C13 mph, W66%10000m1022hPa68%
19-Jun-2024 18:00Broken Clouds13°C9 mph, SW78%10000m1021hPa78%
19-Jun-2024 21:00Broken Clouds8°C7 mph, W72%10000m1021hPa91%
20-Jun-2024 00:00Scattered Clouds8°C4 mph, SW36%10000m1020hPa88%
20-Jun-2024 03:00Few Clouds7°C4 mph, SW14%10000m1018hPa91%
20-Jun-2024 06:00Few Clouds11°C4 mph, SW23%10000m1017hPa86%
20-Jun-2024 09:00Overcast Clouds15°C4 mph, SW98%10000m1016hPa77%
20-Jun-2024 12:00Broken Clouds20°C4 mph, SE81%10000m1014hPa68%
20-Jun-2024 15:00Light Rain19°C7 mph, E100%10000m1011hPa73%
20-Jun-2024 18:00Overcast Clouds16°C13 mph, E100%10000m1011hPa81%
20-Jun-2024 21:00Overcast Clouds11°C9 mph, E100%10000m1011hPa79%
21-Jun-2024 00:00Light Rain9°C7 mph, NE100%10000m1009hPa97%